Time;durP1;ratioP1;P1;durP2;ratioP2;P2;SDS_P1;SDS_P2;PMS_P1;PMS_P2;Temp;Humidity;BMP_temperature;BMP_pressure;BME280_temperature;BME280_humidity;BME280_pressure;Samples;Min_cycle;Max_cycle;Signal;HPM_P1;HPM_P2
2023/12/11 00:01:19;;;;;;;7.47;1.90;;;;;;;;;;4997286;28;20205;-70
2023/12/11 00:03:49;;;;;;;7.97;2.07;;;;;;;;;;4992106;28;20720;-71
2023/12/11 00:06:18;;;;;;;5.97;1.67;;;;;;;;;;4993934;28;20216;-71
2023/12/11 00:08:46;;;;;;;5.70;1.87;;;;;;;;;;5000272;28;20213;-71
2023/12/11 00:11:15;;;;;;;9.60;2.43;;;;;;;;;;5000495;28;20231;-71
2023/12/11 00:13:43;;;;;;;6.57;2.20;;;;;;;;;;5000474;28;20287;-70
2023/12/11 00:16:11;;;;;;;5.03;2.20;;;;;;;;;;5000732;28;20308;-71
2023/12/11 00:18:39;;;;;;;8.23;2.10;;;;;;;;;;4997957;28;20212;-71
2023/12/11 00:21:10;;;;;;;9.87;2.70;;;;;;;;;;5000446;28;20205;-71
2023/12/11 00:23:39;;;;;;;8.37;2.43;;;;;;;;;;4994356;28;20263;-71
2023/12/11 00:26:07;;;;;;;5.97;2.83;;;;;;;;;;4999846;28;20225;-71
2023/12/11 00:28:35;;;;;;;6.10;2.30;;;;;;;;;;5000138;28;20259;-70
2023/12/11 00:31:07;;;;;;;5.77;2.23;;;;;;;;;;5000366;28;20208;-71
2023/12/11 00:33:40;;;;;;;7.23;2.57;;;;;;;;;;5000031;28;20208;-70
2023/12/11 00:36:11;;;;;;;6.37;2.10;;;;;;;;;;5000167;28;20316;-71
2023/12/11 00:38:39;;;;;;;5.67;2.30;;;;;;;;;;4999016;28;20280;-70
2023/12/11 00:41:38;;;;;;;6.57;2.10;;;;;;;;;;4996710;28;20201;-71
2023/12/11 00:44:06;;;;;;;8.90;2.83;;;;;;;;;;4996419;28;20205;-70
2023/12/11 00:46:35;;;;;;;8.17;2.40;;;;;;;;;;5000099;28;20688;-70
2023/12/11 00:49:03;;;;;;;6.57;2.10;;;;;;;;;;4999696;28;20315;-71
2023/12/11 00:51:33;;;;;;;4.57;1.60;;;;;;;;;;5000370;28;20241;-70
2023/12/11 00:54:02;;;;;;;6.67;1.97;;;;;;;;;;4998863;28;20235;-71
2023/12/11 00:56:30;;;;;;;8.27;2.30;;;;;;;;;;5000067;28;20695;-70
2023/12/11 00:58:58;;;;;;;7.93;3.07;;;;;;;;;;4999025;28;20217;-71
2023/12/11 01:01:27;;;;;;;8.20;1.60;;;;;;;;;;4993817;28;20205;-71
2023/12/11 01:03:56;;;;;;;3.43;1.53;;;;;;;;;;4999708;28;20296;-71
2023/12/11 01:06:24;;;;;;;7.97;2.03;;;;;;;;;;4999741;28;20197;-71
2023/12/11 01:08:54;;;;;;;8.73;2.90;;;;;;;;;;4999398;28;20682;-71
2023/12/11 01:11:22;;;;;;;5.17;2.10;;;;;;;;;;4999980;28;20211;-71
2023/12/11 01:13:50;;;;;;;7.93;1.80;;;;;;;;;;4999307;28;20719;-70
2023/12/11 01:16:19;;;;;;;7.37;2.07;;;;;;;;;;4999056;28;20251;-70
2023/12/11 01:18:47;;;;;;;10.30;2.10;;;;;;;;;;4996630;28;20216;-71
2023/12/11 01:21:16;;;;;;;9.60;1.83;;;;;;;;;;4998657;28;20568;-69
2023/12/11 01:23:44;;;;;;;8.27;2.30;;;;;;;;;;4999257;28;20289;-71
2023/12/11 01:26:14;;;;;;;5.87;1.80;;;;;;;;;;4999130;28;20688;-71
2023/12/11 01:28:42;;;;;;;9.70;1.80;;;;;;;;;;4993500;28;20207;-71
2023/12/11 01:31:11;;;;;;;6.93;1.87;;;;;;;;;;4997500;28;20201;-71
2023/12/11 01:33:39;;;;;;;11.37;2.30;;;;;;;;;;4994993;28;20620;-71
2023/12/11 01:36:08;;;;;;;7.73;1.97;;;;;;;;;;4998779;28;20220;-71
2023/12/11 01:38:36;;;;;;;6.73;2.33;;;;;;;;;;4998482;28;20286;-70
2023/12/11 01:41:05;;;;;;;9.17;2.33;;;;;;;;;;4999130;28;20265;-70
2023/12/11 01:43:34;;;;;;;12.43;2.43;;;;;;;;;;4998810;28;20229;-69
2023/12/11 01:46:04;;;;;;;8.63;2.07;;;;;;;;;;4999110;28;20221;-70
2023/12/11 01:48:33;;;;;;;12.57;2.40;;;;;;;;;;4998360;28;20233;-70
2023/12/11 01:51:02;;;;;;;4.67;1.93;;;;;;;;;;4995008;28;20208;-70
2023/12/11 01:53:31;;;;;;;3.00;2.00;;;;;;;;;;4998658;28;20201;-70
2023/12/11 01:55:59;;;;;;;7.50;2.30;;;;;;;;;;4998552;28;20586;-71
2023/12/11 01:58:29;;;;;;;5.27;1.90;;;;;;;;;;4998596;28;20221;-70
2023/12/11 02:00:59;;;;;;;12.50;2.80;;;;;;;;;;4995686;28;20208;-70
2023/12/11 02:03:28;;;;;;;6.47;2.37;;;;;;;;;;4997625;28;20205;-70
2023/12/11 02:05:57;;;;;;;8.40;2.60;;;;;;;;;;4998639;28;20231;-70
2023/12/11 02:08:25;;;;;;;6.10;1.80;;;;;;;;;;4998746;28;20224;-70
2023/12/11 02:10:53;;;;;;;7.53;2.87;;;;;;;;;;4998084;28;20209;-70
2023/12/11 02:13:22;;;;;;;4.70;2.20;;;;;;;;;;4998701;28;20284;-70
2023/12/11 02:15:51;;;;;;;7.20;2.20;;;;;;;;;;4998336;28;20283;-70
2023/12/11 02:18:21;;;;;;;7.77;2.37;;;;;;;;;;4998726;28;20224;-70
2023/12/11 02:20:50;;;;;;;9.63;2.57;;;;;;;;;;4993910;28;20204;-71
2023/12/11 02:23:23;;;;;;;7.07;2.17;;;;;;;;;;4997745;28;20549;-70
2023/12/11 02:25:59;;;;;;;5.97;2.43;;;;;;;;;;4992514;28;20252;-71
2023/12/11 02:28:29;;;;;;;12.03;2.17;;;;;;;;;;4997960;28;20255;-70
2023/12/11 02:30:57;;;;;;;8.13;1.80;;;;;;;;;;4997952;28;20207;-71
2023/12/11 02:33:26;;;;;;;10.00;2.50;;;;;;;;;;4996946;28;20209;-71
2023/12/11 02:35:55;;;;;;;6.73;2.17;;;;;;;;;;4998202;28;20236;-71
2023/12/11 02:38:23;;;;;;;10.33;2.57;;;;;;;;;;4984351;28;20236;-72
2023/12/11 02:40:52;;;;;;;5.07;2.47;;;;;;;;;;4995624;28;20201;-71
2023/12/11 02:43:20;;;;;;;8.23;2.23;;;;;;;;;;4997466;28;20267;-71
2023/12/11 02:45:50;;;;;;;5.03;2.27;;;;;;;;;;4997824;28;20233;-71
2023/12/11 02:48:18;;;;;;;8.60;2.10;;;;;;;;;;4997658;28;20225;-71
2023/12/11 02:50:47;;;;;;;6.97;2.10;;;;;;;;;;4998033;28;20197;-71
2023/12/11 02:53:15;;;;;;;7.17;2.73;;;;;;;;;;4996833;28;20646;-71
2023/12/11 02:55:44;;;;;;;5.17;1.80;;;;;;;;;;4997860;28;20264;-72
2023/12/11 02:58:12;;;;;;;5.50;2.20;;;;;;;;;;4982639;28;20260;-71
2023/12/11 03:00:40;;;;;;;6.57;1.93;;;;;;;;;;4997345;28;20605;-70
2023/12/11 03:03:10;;;;;;;7.07;1.90;;;;;;;;;;4992227;28;20209;-70
2023/12/11 03:05:39;;;;;;;8.00;2.03;;;;;;;;;;4992414;28;20272;-69
2023/12/11 03:08:07;;;;;;;6.00;1.77;;;;;;;;;;4986629;28;20204;-69
2023/12/11 03:10:36;;;;;;;9.30;2.47;;;;;;;;;;4992663;28;20202;-72
2023/12/11 03:13:04;;;;;;;5.77;2.30;;;;;;;;;;4997510;28;20668;-70
2023/12/11 03:15:32;;;;;;;7.40;2.20;;;;;;;;;;4997274;28;20225;-70
2023/12/11 03:18:01;;;;;;;5.17;2.40;;;;;;;;;;4996973;28;20209;-70
2023/12/11 03:20:32;;;;;;;8.00;1.80;;;;;;;;;;4990832;28;20207;-71
2023/12/11 03:23:00;;;;;;;7.47;2.40;;;;;;;;;;4996808;28;20272;-70
2023/12/11 03:25:28;;;;;;;7.73;2.20;;;;;;;;;;4997619;28;20299;-70
2023/12/11 03:27:56;;;;;;;9.63;2.80;;;;;;;;;;4997565;28;20720;-70
2023/12/11 03:30:25;;;;;;;6.33;1.83;;;;;;;;;;4997008;28;20251;-70
2023/12/11 03:32:53;;;;;;;9.40;1.80;;;;;;;;;;4997100;28;20656;-70
2023/12/11 03:35:21;;;;;;;8.37;2.33;;;;;;;;;;4996892;28;20231;-70
2023/12/11 03:37:58;;;;;;;7.63;2.13;;;;;;;;;;4996251;28;20205;-71
2023/12/11 03:40:28;;;;;;;7.20;2.57;;;;;;;;;;4991374;28;20224;-70
2023/12/11 03:42:56;;;;;;;8.23;2.37;;;;;;;;;;5000936;28;20240;-71
2023/12/11 03:45:24;;;;;;;7.10;1.97;;;;;;;;;;5001103;28;20231;-71
2023/12/11 03:47:53;;;;;;;8.37;2.33;;;;;;;;;;5000822;28;20742;-71
2023/12/11 03:50:21;;;;;;;6.07;2.00;;;;;;;;;;5001262;28;20208;-71
2023/12/11 03:52:49;;;;;;;8.03;2.00;;;;;;;;;;4993055;28;20288;-71
2023/12/11 03:55:20;;;;;;;8.77;2.40;;;;;;;;;;4999866;28;20252;-71
2023/12/11 03:57:49;;;;;;;5.43;1.93;;;;;;;;;;4995438;28;20206;-71
2023/12/11 04:00:17;;;;;;;7.60;2.33;;;;;;;;;;4995110;28;20252;-71
2023/12/11 04:02:46;;;;;;;5.60;2.27;;;;;;;;;;5000657;28;20613;-71
2023/12/11 04:05:14;;;;;;;9.03;2.50;;;;;;;;;;5000946;28;20313;-71
2023/12/11 04:07:42;;;;;;;8.00;2.03;;;;;;;;;;5001001;28;20284;-70
2023/12/11 04:10:11;;;;;;;11.97;2.60;;;;;;;;;;5000897;28;20288;-70
2023/12/11 04:12:42;;;;;;;9.60;2.30;;;;;;;;;;5000752;28;20205;-70
2023/12/11 04:15:11;;;;;;;13.07;3.33;;;;;;;;;;4989274;28;20252;-71
2023/12/11 04:17:42;;;;;;;5.67;1.80;;;;;;;;;;4995887;28;20200;-70
2023/12/11 04:20:11;;;;;;;8.57;2.27;;;;;;;;;;5000644;28;20232;-70
2023/12/11 04:22:39;;;;;;;7.87;2.07;;;;;;;;;;4995391;28;20205;-70
2023/12/11 04:25:08;;;;;;;7.00;2.40;;;;;;;;;;5000687;28;20263;-70
2023/12/11 04:27:36;;;;;;;4.43;1.63;;;;;;;;;;5000857;28;20201;-70
2023/12/11 04:30:07;;;;;;;8.43;2.30;;;;;;;;;;4997890;28;20212;-70
2023/12/11 04:32:40;;;;;;;9.40;3.10;;;;;;;;;;4995436;28;20684;-70
2023/12/11 04:35:11;;;;;;;8.47;2.43;;;;;;;;;;4997922;28;20247;-68
2023/12/11 04:37:48;;;;;;;6.73;2.07;;;;;;;;;;4999805;28;20204;-69
2023/12/11 04:40:18;;;;;;;5.87;1.70;;;;;;;;;;5000051;28;20287;-68
2023/12/11 04:42:47;;;;;;;8.23;2.43;;;;;;;;;;5000359;28;20209;-69
2023/12/11 04:45:18;;;;;;;10.53;2.83;;;;;;;;;;4999782;28;20224;-69
2023/12/11 04:47:47;;;;;;;8.67;2.23;;;;;;;;;;5000298;28;20255;-69
2023/12/11 04:50:15;;;;;;;6.27;1.80;;;;;;;;;;4999090;28;20201;-68
2023/12/11 04:52:43;;;;;;;7.80;2.33;;;;;;;;;;5000397;28;20260;-68
2023/12/11 04:55:12;;;;;;;10.00;1.87;;;;;;;;;;4997810;28;20260;-69
2023/12/11 04:57:40;;;;;;;9.17;2.30;;;;;;;;;;5000026;28;20212;-69
2023/12/11 05:00:10;;;;;;;11.20;2.73;;;;;;;;;;4999497;28;20224;-69
2023/12/11 05:02:40;;;;;;;8.17;2.00;;;;;;;;;;4999452;28;20255;-69
2023/12/11 05:05:09;;;;;;;6.43;2.17;;;;;;;;;;4996478;28;20217;-70
2023/12/11 05:07:38;;;;;;;12.07;2.80;;;;;;;;;;4999713;28;20237;-70
2023/12/11 05:10:07;;;;;;;10.30;2.80;;;;;;;;;;4999757;28;20209;-70
2023/12/11 05:12:35;;;;;;;7.10;2.10;;;;;;;;;;4999482;28;20209;-70
2023/12/11 05:15:04;;;;;;;6.10;2.30;;;;;;;;;;4999189;28;20287;-70
2023/12/11 05:17:32;;;;;;;8.67;2.30;;;;;;;;;;4999565;28;20283;-70
2023/12/11 05:20:02;;;;;;;5.47;2.20;;;;;;;;;;4999451;28;20651;-70
2023/12/11 05:22:31;;;;;;;8.33;2.00;;;;;;;;;;4999997;28;20212;-70
2023/12/11 05:25:00;;;;;;;5.33;1.80;;;;;;;;;;4999131;28;20644;-70
2023/12/11 05:27:29;;;;;;;10.13;2.47;;;;;;;;;;4999468;28;20664;-70
2023/12/11 05:29:58;;;;;;;9.20;2.30;;;;;;;;;;4999359;28;20205;-70
2023/12/11 05:32:26;;;;;;;7.47;2.13;;;;;;;;;;4999539;28;20736;-70
2023/12/11 05:34:54;;;;;;;8.10;2.00;;;;;;;;;;4997892;28;20221;-71
2023/12/11 05:37:24;;;;;;;4.70;2.03;;;;;;;;;;4996578;28;20283;-72
2023/12/11 05:39:52;;;;;;;4.97;2.00;;;;;;;;;;4999305;28;20220;-72
2023/12/11 05:42:41;;;;;;;5.47;2.27;;;;;;;;;;4990187;28;20205;-72
2023/12/11 05:45:09;;;;;;;5.40;1.97;;;;;;;;;;4998455;28;20244;-71
2023/12/11 05:47:38;;;;;;;7.80;2.00;;;;;;;;;;4997239;28;20232;-68
2023/12/11 05:50:09;;;;;;;5.90;2.17;;;;;;;;;;4997669;28;20686;-71
2023/12/11 05:52:41;;;;;;;5.07;1.67;;;;;;;;;;4996911;28;20228;-70
2023/12/11 05:55:10;;;;;;;2.27;1.40;;;;;;;;;;4996466;28;20284;-71
2023/12/11 05:57:41;;;;;;;6.47;1.83;;;;;;;;;;4998934;28;20632;-71
2023/12/11 06:00:12;;;;;;;7.40;2.33;;;;;;;;;;4998202;28;20236;-70
2023/12/11 06:02:41;;;;;;;7.90;2.13;;;;;;;;;;4998613;28;20283;-70
2023/12/11 06:05:11;;;;;;;5.47;2.23;;;;;;;;;;4994094;28;20236;-72
2023/12/11 06:07:41;;;;;;;5.70;2.50;;;;;;;;;;4996262;28;20204;-71
2023/12/11 06:10:10;;;;;;;4.57;2.10;;;;;;;;;;4998568;28;20556;-71
2023/12/11 06:12:40;;;;;;;9.23;2.40;;;;;;;;;;4998581;28;20263;-71
2023/12/11 06:15:09;;;;;;;5.20;1.90;;;;;;;;;;4998543;28;20232;-71
2023/12/11 06:17:37;;;;;;;11.40;2.80;;;;;;;;;;4998509;28;20255;-71
2023/12/11 06:20:07;;;;;;;6.30;1.97;;;;;;;;;;4993953;28;20240;-71
2023/12/11 06:22:35;;;;;;;6.60;2.13;;;;;;;;;;4996687;28;20201;-71
2023/12/11 06:25:05;;;;;;;10.97;2.07;;;;;;;;;;4997991;28;20225;-71
2023/12/11 06:27:34;;;;;;;7.77;2.20;;;;;;;;;;4998174;28;20208;-71
2023/12/11 06:30:03;;;;;;;5.07;1.70;;;;;;;;;;4997758;28;20201;-71
2023/12/11 06:32:31;;;;;;;13.73;2.57;;;;;;;;;;4997973;28;20292;-71
2023/12/11 06:34:59;;;;;;;9.50;2.27;;;;;;;;;;4997662;28;20590;-71
2023/12/11 06:37:28;;;;;;;5.97;1.73;;;;;;;;;;4986990;28;20540;-71
2023/12/11 06:39:57;;;;;;;7.40;2.30;;;;;;;;;;4997295;28;20699;-71
2023/12/11 06:42:27;;;;;;;7.67;2.30;;;;;;;;;;4996952;28;20572;-71
2023/12/11 06:44:55;;;;;;;3.27;1.80;;;;;;;;;;4997427;28;20312;-71
2023/12/11 06:47:24;;;;;;;5.67;2.00;;;;;;;;;;4997722;28;20201;-71
2023/12/11 06:49:52;;;;;;;7.03;2.53;;;;;;;;;;4997589;28;20305;-70
2023/12/11 06:52:21;;;;;;;7.97;1.70;;;;;;;;;;4997847;28;20285;-70
2023/12/11 06:54:49;;;;;;;5.23;1.80;;;;;;;;;;4997916;28;20221;-69
2023/12/11 06:57:20;;;;;;;6.03;1.73;;;;;;;;;;4995993;28;20267;-70
2023/12/11 06:59:50;;;;;;;6.13;1.90;;;;;;;;;;4997304;28;20273;-70
2023/12/11 07:02:18;;;;;;;5.33;1.80;;;;;;;;;;4997459;28;20236;-69
2023/12/11 07:04:47;;;;;;;3.20;1.90;;;;;;;;;;4981299;28;20229;-71
2023/12/11 07:07:15;;;;;;;9.43;2.70;;;;;;;;;;4984626;28;20248;-71
2023/12/11 07:09:46;;;;;;;6.77;2.17;;;;;;;;;;4997499;28;20201;-70
2023/12/11 07:12:14;;;;;;;6.50;3.10;;;;;;;;;;4997340;28;20660;-68
2023/12/11 07:14:44;;;;;;;9.90;2.57;;;;;;;;;;4996879;28;20762;-71
2023/12/11 07:17:16;;;;;;;4.53;2.30;;;;;;;;;;4997466;28;20207;-72
2023/12/11 07:19:44;;;;;;;6.53;2.10;;;;;;;;;;4992130;28;20205;-65
2023/12/11 07:22:13;;;;;;;4.23;2.20;;;;;;;;;;5000111;28;20291;-68
2023/12/11 07:24:42;;;;;;;7.20;2.27;;;;;;;;;;4998371;28;20224;-68
2023/12/11 07:27:11;;;;;;;8.63;1.93;;;;;;;;;;5000192;28;20201;-68
2023/12/11 07:29:39;;;;;;;6.33;1.80;;;;;;;;;;5000147;28;20641;-67
2023/12/11 07:32:08;;;;;;;10.03;1.97;;;;;;;;;;4995723;28;20201;-67
2023/12/11 07:34:38;;;;;;;7.70;2.50;;;;;;;;;;4998033;28;20224;-67
2023/12/11 07:37:32;;;;;;;7.33;2.13;;;;;;;;;;4984410;28;20204;-69
2023/12/11 07:40:19;;;;;;;6.60;2.07;;;;;;;;;;4916114;29;20266;-69
2023/12/11 07:42:51;;;;;;;7.30;2.10;;;;;;;;;;4934710;28;20286;-69
2023/12/11 07:45:20;;;;;;;7.30;2.57;;;;;;;;;;4998157;28;20912;-67
2023/12/11 07:47:51;;;;;;;9.20;2.20;;;;;;;;;;5009676;28;20323;-67
2023/12/11 07:50:24;;;;;;;7.57;2.43;;;;;;;;;;4998369;28;20205;-67
2023/12/11 07:56:20;;;;;;;7.90;2.10;;;;;;;;;;4988597;28;20214;-69
2023/12/11 07:58:59;;;;;;;6.07;2.27;;;;;;;;;;4987010;28;20216;-71
2023/12/11 08:01:30;;;;;;;8.23;2.00;;;;;;;;;;4992435;28;20224;-71
2023/12/11 08:03:59;;;;;;;4.23;2.20;;;;;;;;;;4994949;28;20204;-71
2023/12/11 08:06:47;;;;;;;7.97;2.80;;;;;;;;;;4986672;28;20201;-76
2023/12/11 08:09:27;;;;;;;4.87;1.83;;;;;;;;;;4991856;28;20202;-78
2023/12/11 08:11:55;;;;;;;4.27;2.00;;;;;;;;;;4994459;28;20248;-74
2023/12/11 08:14:23;;;;;;;5.60;1.80;;;;;;;;;;4992742;28;20224;-73
2023/12/11 08:16:51;;;;;;;8.60;2.60;;;;;;;;;;4991079;28;20578;-75
2023/12/11 08:19:23;;;;;;;7.90;1.97;;;;;;;;;;5002206;28;20224;-74
2023/12/11 08:21:53;;;;;;;7.63;2.53;;;;;;;;;;5002306;28;20271;-72
2023/12/11 08:24:22;;;;;;;5.97;1.90;;;;;;;;;;4997520;28;20263;-74
2023/12/11 08:26:50;;;;;;;3.83;1.97;;;;;;;;;;5000107;28;20205;-71
2023/12/11 08:29:19;;;;;;;5.63;1.97;;;;;;;;;;4999833;28;20296;-73
2023/12/11 08:31:48;;;;;;;6.60;2.17;;;;;;;;;;4999413;28;20205;-72
2023/12/11 08:34:16;;;;;;;8.53;2.30;;;;;;;;;;4998444;28;20307;-73
2023/12/11 08:36:45;;;;;;;5.67;1.83;;;;;;;;;;5000103;28;20208;-71
2023/12/11 08:42:43;;;;;;;5.10;1.80;;;;;;;;;;4999049;28;20239;-67
2023/12/11 08:45:11;;;;;;;5.33;1.73;;;;;;;;;;4999521;28;20243;-67
2023/12/11 08:47:41;;;;;;;6.33;2.00;;;;;;;;;;4996536;28;20241;-71
2023/12/11 08:50:11;;;;;;;7.50;1.63;;;;;;;;;;4995527;28;20206;-70
2023/12/11 08:52:42;;;;;;;5.73;2.27;;;;;;;;;;5000356;28;20201;-68
2023/12/11 08:55:12;;;;;;;4.80;1.73;;;;;;;;;;4990901;28;20224;-71
2023/12/11 08:57:46;;;;;;;12.53;2.87;;;;;;;;;;4992340;28;20265;-70
2023/12/11 09:00:15;;;;;;;13.33;2.60;;;;;;;;;;5003031;28;20199;-69
2023/12/11 09:02:43;;;;;;;6.27;2.47;;;;;;;;;;5003097;28;20239;-69
2023/12/11 09:08:40;;;;;;;6.00;2.37;;;;;;;;;;4997719;28;20231;-68
2023/12/11 09:11:09;;;;;;;5.47;1.73;;;;;;;;;;4998893;28;20276;-67
2023/12/11 09:13:40;;;;;;;9.63;2.27;;;;;;;;;;4994951;28;20205;-64
2023/12/11 09:16:09;;;;;;;6.57;2.10;;;;;;;;;;4994632;28;20221;-66
2023/12/11 09:18:37;;;;;;;6.97;2.20;;;;;;;;;;4989629;28;20259;-68
2023/12/11 09:21:05;;;;;;;8.00;2.30;;;;;;;;;;4987321;28;20762;-65
2023/12/11 09:23:33;;;;;;;9.10;2.20;;;;;;;;;;4996582;28;20571;-65
2023/12/11 09:29:32;;;;;;;8.03;2.83;;;;;;;;;;4991778;28;20203;-70
2023/12/11 09:32:00;;;;;;;7.20;2.20;;;;;;;;;;4992426;28;20205;-69
2023/12/11 09:34:28;;;;;;;5.27;2.20;;;;;;;;;;4998530;28;20228;-68
2023/12/11 09:36:58;;;;;;;5.17;2.10;;;;;;;;;;4998096;28;20216;-69
2023/12/11 09:39:26;;;;;;;4.53;2.07;;;;;;;;;;4997693;28;20215;-70
2023/12/11 09:41:54;;;;;;;10.93;2.23;;;;;;;;;;4996305;28;20233;-74
2023/12/11 09:44:23;;;;;;;3.80;2.37;;;;;;;;;;4996942;28;20232;-71
2023/12/11 09:46:55;;;;;;;5.47;1.97;;;;;;;;;;4995616;28;20237;-70
2023/12/11 09:49:29;;;;;;;5.60;2.10;;;;;;;;;;4998173;28;20266;-67
2023/12/11 09:51:58;;;;;;;8.23;2.40;;;;;;;;;;4998390;28;20204;-69
2023/12/11 09:54:26;;;;;;;5.93;2.40;;;;;;;;;;4998504;28;20570;-66
2023/12/11 09:56:55;;;;;;;8.17;2.13;;;;;;;;;;4998295;28;20519;-68
2023/12/11 09:59:27;;;;;;;3.53;1.77;;;;;;;;;;4987155;28;20201;-66
2023/12/11 10:02:00;;;;;;;5.23;2.10;;;;;;;;;;4998458;28;20235;-67
2023/12/11 10:04:29;;;;;;;4.00;1.77;;;;;;;;;;4998351;28;20216;-73
2023/12/11 10:10:45;;;;;;;5.40;1.90;;;;;;;;;;4995705;28;20180;-76
2023/12/11 10:13:22;;;;;;;3.37;1.87;;;;;;;;;;4997847;28;20300;-68
2023/12/11 10:19:15;;;;;;;5.40;2.03;;;;;;;;;;4996394;28;20188;-70
2023/12/11 10:22:05;;;;;;;7.93;2.20;;;;;;;;;;4997810;28;20209;-71
2023/12/11 10:24:43;;;;;;;4.20;2.43;;;;;;;;;;4990664;28;20225;-69
2023/12/11 10:27:14;;;;;;;3.73;2.03;;;;;;;;;;4993605;28;20205;-70
2023/12/11 10:29:44;;;;;;;7.53;2.33;;;;;;;;;;4994691;28;20260;-72
2023/12/11 10:32:12;;;;;;;6.97;2.13;;;;;;;;;;4995799;28;20201;-73
2023/12/11 10:38:11;;;;;;;10.47;2.50;;;;;;;;;;4996092;28;20188;-69
2023/12/11 10:40:40;;;;;;;6.27;2.00;;;;;;;;;;4997738;28;20212;-71
2023/12/11 10:43:08;;;;;;;5.23;1.90;;;;;;;;;;4987332;28;20268;-69
2023/12/11 10:45:39;;;;;;;6.47;2.30;;;;;;;;;;4990636;28;20225;-67
2023/12/11 10:48:08;;;;;;;5.60;1.97;;;;;;;;;;4990844;28;20265;-70
2023/12/11 10:53:59;;;;;;;3.73;1.93;;;;;;;;;;4986787;28;20188;-67
2023/12/11 10:56:27;;;;;;;6.97;1.90;;;;;;;;;;4987762;28;20263;-66
2023/12/11 10:58:57;;;;;;;13.40;2.93;;;;;;;;;;4994202;28;20587;-68
2023/12/11 11:01:26;;;;;;;9.70;2.93;;;;;;;;;;4987345;28;20204;-65
2023/12/11 11:03:55;;;;;;;3.57;2.07;;;;;;;;;;4997672;28;20229;-66
2023/12/11 11:06:29;;;;;;;5.33;1.80;;;;;;;;;;4995952;28;20228;-66
2023/12/11 11:09:04;;;;;;;5.57;1.90;;;;;;;;;;4998464;28;20235;-66
2023/12/11 11:11:47;;;;;;;4.07;1.70;;;;;;;;;;4994357;28;20205;-64
2023/12/11 11:14:38;;;;;;;6.87;3.03;;;;;;;;;;4997518;28;20319;-65
2023/12/11 11:17:06;;;;;;;5.20;2.30;;;;;;;;;;4995419;28;20570;-69
2023/12/11 11:19:35;;;;;;;6.53;2.00;;;;;;;;;;4987712;28;20201;-64
2023/12/11 11:22:22;;;;;;;5.93;2.33;;;;;;;;;;4994606;28;20615;-68
2023/12/11 11:25:32;;;;;;;6.10;2.20;;;;;;;;;;4996832;28;20232;-66
2023/12/11 11:28:02;;;;;;;7.23;2.10;;;;;;;;;;4996426;28;20271;-68
2023/12/11 11:30:51;;;;;;;6.47;1.80;;;;;;;;;;4997384;28;20201;-67
2023/12/11 11:33:46;;;;;;;124.13;73.17;;;;;;;;;;4935400;29;20218;-70
2023/12/11 11:36:16;;;;;;;13.20;6.03;;;;;;;;;;4933811;29;20253;-71
2023/12/11 11:38:58;;;;;;;6.47;3.13;;;;;;;;;;4936274;29;20403;-72
2023/12/11 11:41:27;;;;;;;7.10;1.80;;;;;;;;;;4936163;29;20203;-66
2023/12/11 11:47:19;;;;;;;6.83;2.07;;;;;;;;;;4895127;29;20804;-71
2023/12/11 11:50:06;;;;;;;7.30;2.23;;;;;;;;;;4936663;29;20201;-69
2023/12/11 11:52:38;;;;;;;4.60;1.67;;;;;;;;;;4935186;29;20206;-69
2023/12/11 11:55:09;;;;;;;4.50;2.20;;;;;;;;;;4939336;29;20577;-73
2023/12/11 11:57:39;;;;;;;6.97;2.57;;;;;;;;;;4935688;29;20207;-72
2023/12/11 12:03:55;;;;;;;6.70;1.80;;;;;;;;;;4937924;29;20290;-71
2023/12/11 12:06:30;;;;;;;6.73;1.90;;;;;;;;;;4924699;29;20208;-69
2023/12/11 12:09:00;;;;;;;5.40;1.87;;;;;;;;;;4940021;29;20209;-71
2023/12/11 12:11:30;;;;;;;4.33;1.60;;;;;;;;;;4984397;28;20938;-72
2023/12/11 12:13:58;;;;;;;7.07;2.90;;;;;;;;;;4996794;28;20629;-70
2023/12/11 12:16:29;;;;;;;2.80;1.70;;;;;;;;;;5000279;28;20259;-71
2023/12/11 12:18:57;;;;;;;3.90;2.00;;;;;;;;;;5003795;28;20212;-72
2023/12/11 12:21:26;;;;;;;3.13;1.97;;;;;;;;;;5000806;28;20232;-71
2023/12/11 12:24:06;;;;;;;3.37;2.03;;;;;;;;;;5000125;28;20227;-71
2023/12/11 12:26:47;;;;;;;6.13;1.80;;;;;;;;;;4998600;28;20657;-70
2023/12/11 12:29:26;;;;;;;4.03;2.17;;;;;;;;;;4990814;28;20206;-68
2023/12/11 12:31:54;;;;;;;6.90;1.87;;;;;;;;;;4999307;28;20247;-70
2023/12/11 12:34:22;;;;;;;3.87;2.00;;;;;;;;;;4999997;28;20232;-67
2023/12/11 12:36:54;;;;;;;4.00;1.87;;;;;;;;;;5002638;28;20252;-68
2023/12/11 12:39:23;;;;;;;3.90;1.97;;;;;;;;;;5000231;28;20670;-66
2023/12/11 12:41:53;;;;;;;4.07;2.20;;;;;;;;;;4995606;28;20236;-67
2023/12/11 12:44:22;;;;;;;6.70;2.47;;;;;;;;;;4999765;28;20232;-69
2023/12/11 12:46:50;;;;;;;6.70;2.47;;;;;;;;;;4998915;28;20606;-70
2023/12/11 12:49:18;;;;;;;4.97;2.03;;;;;;;;;;5002697;28;20324;-68
2023/12/11 12:51:50;;;;;;;7.10;2.40;;;;;;;;;;4999591;28;20611;-70
2023/12/11 12:54:21;;;;;;;4.47;2.10;;;;;;;;;;5000178;28;20255;-69
2023/12/11 12:56:53;;;;;;;6.97;2.23;;;;;;;;;;4999342;28;20216;-69
2023/12/11 12:59:21;;;;;;;4.80;1.90;;;;;;;;;;4999420;28;20263;-68
2023/12/11 13:01:49;;;;;;;5.87;2.33;;;;;;;;;;4988148;28;20672;-71
2023/12/11 13:04:17;;;;;;;2.97;1.70;;;;;;;;;;4998652;28;20594;-72
2023/12/11 13:06:46;;;;;;;5.40;2.20;;;;;;;;;;4999214;28;20205;-69
2023/12/11 13:09:30;;;;;;;5.40;2.40;;;;;;;;;;4999975;28;20216;-68
2023/12/11 13:11:58;;;;;;;6.97;2.00;;;;;;;;;;4990622;28;20296;-70
2023/12/11 13:14:26;;;;;;;5.20;2.23;;;;;;;;;;4999405;28;20224;-70
2023/12/11 13:16:55;;;;;;;5.10;1.93;;;;;;;;;;4992875;28;20202;-72
2023/12/11 13:19:24;;;;;;;5.47;2.30;;;;;;;;;;4999397;28;20205;-71
2023/12/11 13:21:52;;;;;;;6.80;2.20;;;;;;;;;;4998997;28;20257;-70
2023/12/11 13:24:23;;;;;;;4.03;1.97;;;;;;;;;;4998763;28;20591;-71
2023/12/11 13:26:52;;;;;;;6.60;2.20;;;;;;;;;;4981065;28;20295;-71
2023/12/11 13:29:20;;;;;;;4.87;2.80;;;;;;;;;;4997036;28;20620;-72
2023/12/11 13:31:49;;;;;;;5.63;2.07;;;;;;;;;;4998871;28;20263;-72
2023/12/11 13:34:16;;;;;;;4.47;1.70;;;;;;;;;;4999041;28;20221;-71
2023/12/11 13:36:45;;;;;;;4.97;1.80;;;;;;;;;;5002417;28;20228;-71
2023/12/11 13:39:16;;;;;;;9.03;1.87;;;;;;;;;;4999625;28;20216;-72
2023/12/11 13:41:46;;;;;;;3.37;2.10;;;;;;;;;;4998975;28;20236;-71
2023/12/11 13:44:15;;;;;;;6.07;1.93;;;;;;;;;;4999093;28;20264;-73
2023/12/11 13:46:45;;;;;;;5.97;2.10;;;;;;;;;;4998734;28;20257;-72
2023/12/11 13:49:13;;;;;;;5.03;2.20;;;;;;;;;;4999051;28;20319;-71
2023/12/11 13:51:41;;;;;;;3.13;2.10;;;;;;;;;;4998887;28;20568;-71
2023/12/11 13:54:16;;;;;;;5.67;1.90;;;;;;;;;;4999396;28;20201;-71
2023/12/11 13:56:44;;;;;;;9.17;2.47;;;;;;;;;;4998834;28;20612;-71
2023/12/11 13:59:14;;;;;;;7.93;2.17;;;;;;;;;;4998781;28;20243;-72
2023/12/11 14:01:44;;;;;;;6.30;2.10;;;;;;;;;;4988697;28;20235;-71
2023/12/11 14:04:12;;;;;;;5.57;1.93;;;;;;;;;;4999370;28;20233;-71
2023/12/11 14:06:41;;;;;;;5.83;2.53;;;;;;;;;;4998830;28;20752;-71
2023/12/11 14:09:29;;;;;;;3.93;2.10;;;;;;;;;;4997701;28;20552;-71
2023/12/11 14:12:01;;;;;;;4.37;2.07;;;;;;;;;;4999065;28;20201;-71
2023/12/11 14:14:29;;;;;;;3.07;2.17;;;;;;;;;;4998412;28;20213;-72
2023/12/11 14:16:59;;;;;;;4.33;1.80;;;;;;;;;;4996035;28;20601;-71
2023/12/11 14:19:27;;;;;;;3.83;1.60;;;;;;;;;;4998379;28;20723;-71
2023/12/11 14:22:02;;;;;;;4.23;2.20;;;;;;;;;;4998742;28;20201;-71
2023/12/11 14:24:31;;;;;;;8.37;2.47;;;;;;;;;;4995906;28;20683;-71
2023/12/11 14:26:59;;;;;;;2.83;1.90;;;;;;;;;;4998095;28;20217;-71
2023/12/11 14:29:27;;;;;;;7.57;2.03;;;;;;;;;;4997663;28;20673;-72
2023/12/11 14:31:55;;;;;;;9.20;1.97;;;;;;;;;;4998575;28;20216;-71
2023/12/11 14:34:24;;;;;;;8.80;2.33;;;;;;;;;;4997713;28;20221;-71
2023/12/11 14:36:52;;;;;;;3.73;1.83;;;;;;;;;;4993298;28;20204;-71
2023/12/11 14:39:21;;;;;;;7.83;2.77;;;;;;;;;;4998222;28;20220;-71
2023/12/11 14:41:52;;;;;;;4.27;2.33;;;;;;;;;;4998313;28;20228;-71
2023/12/11 14:44:20;;;;;;;6.83;2.40;;;;;;;;;;4988539;28;20232;-71
2023/12/11 14:46:48;;;;;;;6.30;2.37;;;;;;;;;;4996609;28;20232;-71
2023/12/11 14:49:17;;;;;;;7.07;2.10;;;;;;;;;;4997530;28;20237;-71
2023/12/11 14:51:47;;;;;;;8.07;2.50;;;;;;;;;;4997784;28;20552;-71
2023/12/11 14:54:15;;;;;;;7.97;2.50;;;;;;;;;;4995795;28;20284;-71
2023/12/11 14:56:45;;;;;;;3.63;2.30;;;;;;;;;;4998103;28;20213;-71
2023/12/11 14:59:13;;;;;;;7.27;2.67;;;;;;;;;;4998021;28;20208;-71
2023/12/11 15:01:41;;;;;;;4.43;2.50;;;;;;;;;;4993273;28;20201;-71
2023/12/11 15:04:09;;;;;;;8.13;2.13;;;;;;;;;;4997786;28;20656;-71
2023/12/11 15:06:39;;;;;;;5.63;2.07;;;;;;;;;;4988397;28;20679;-72
2023/12/11 15:09:08;;;;;;;5.13;2.03;;;;;;;;;;4997715;28;20204;-72
2023/12/11 15:11:36;;;;;;;5.77;2.47;;;;;;;;;;4998259;28;20240;-71
2023/12/11 15:14:05;;;;;;;7.30;2.63;;;;;;;;;;4994634;28;20212;-71
2023/12/11 15:16:37;;;;;;;8.93;2.43;;;;;;;;;;4997717;28;20213;-71
2023/12/11 15:19:05;;;;;;;5.60;2.40;;;;;;;;;;4991347;28;20259;-71
2023/12/11 15:22:07;;;;;;;9.33;2.47;;;;;;;;;;4997644;28;20240;-71
2023/12/11 15:24:37;;;;;;;7.33;2.70;;;;;;;;;;4989368;28;20263;-71
2023/12/11 15:27:05;;;;;;;8.13;2.80;;;;;;;;;;4997523;28;20724;-71
2023/12/11 15:29:35;;;;;;;5.17;2.50;;;;;;;;;;4997792;28;20625;-71
2023/12/11 15:32:03;;;;;;;7.83;2.63;;;;;;;;;;4997633;28;20204;-71
2023/12/11 15:34:32;;;;;;;8.53;3.43;;;;;;;;;;4995011;28;20316;-72
2023/12/11 15:40:30;;;;;;;8.77;3.00;;;;;;;;;;5001682;28;20230;-71